AAL327 KMIA-MZBZ
Flight info
| Callsign | AAL327 |
|---|---|
| Flight time | 1h 50m |
| Altitude | 37000 |
| Route | MAYNR3 FUNDI UM335 JABIR/N0475F390 UM335 ALVEK UZ637 PABEL/N0474F380 UZ497 BZE |
| Aircraft | B77W/H-SDE1E2E3FGHIJ2J3J4J5M1RWXY/LB1D1 |
Departure
| Time | 2026-04-20 17:42 |
|---|---|
| Airport | Miami International Airport (KMIA) |
Arrival
| Time | 2026-04-20 19:32 |
|---|---|
| Airport | Philip S. W. Goldson International Airport (MZBZ) |
| Time | Latitude | Longitude | Altitude | Speed | Heading |
|---|---|---|---|---|---|
| 2026-04-20 17:15 | 25.79899 | -80.27400 | 28 ft | 0 kts | 132° |
| 2026-04-20 17:29 | 25.79912 | -80.27415 | 25 ft | 4 kts | 132° |
| 2026-04-20 17:29 | 25.79926 | -80.27433 | 25 ft | 4 kts | 124° |
| 2026-04-20 17:29 | 25.79937 | -80.27459 | 27 ft | 4 kts | 98° |
| 2026-04-20 17:29 | 25.79938 | -80.27489 | 26 ft | 4 kts | 83° |
| 2026-04-20 17:30 | 25.79936 | -80.27518 | 23 ft | 4 kts | 75° |
| 2026-04-20 17:30 | 25.79923 | -80.27534 | 23 ft | 4 kts | 1° |
| 2026-04-20 17:30 | 25.79898 | -80.27532 | 25 ft | 4 kts | 356° |
| 2026-04-20 17:30 | 25.79884 | -80.27531 | 24 ft | 2 kts | 356° |
| 2026-04-20 17:33 | 25.79896 | -80.27532 | 23 ft | 8 kts | 357° |
| 2026-04-20 17:34 | 25.79952 | -80.27539 | 24 ft | 9 kts | 343° |
| 2026-04-20 17:34 | 25.79996 | -80.27598 | 23 ft | 10 kts | 302° |
| 2026-04-20 17:34 | 25.80031 | -80.27624 | 21 ft | 9 kts | 335° |
| 2026-04-20 17:34 | 25.80062 | -80.27685 | 21 ft | 10 kts | 271° |
| 2026-04-20 17:35 | 25.80059 | -80.27760 | 20 ft | 10 kts | 267° |
| 2026-04-20 17:35 | 25.80056 | -80.27835 | 19 ft | 10 kts | 267° |
| 2026-04-20 17:35 | 25.80053 | -80.27917 | 17 ft | 13 kts | 268° |
| 2026-04-20 17:35 | 25.80047 | -80.28058 | 16 ft | 23 kts | 264° |
| 2026-04-20 17:36 | 25.80039 | -80.28241 | 20 ft | 24 kts | 268° |
| 2026-04-20 17:36 | 25.80033 | -80.28424 | 20 ft | 24 kts | 268° |
| 2026-04-20 17:36 | 25.80024 | -80.28606 | 25 ft | 24 kts | 266° |
| 2026-04-20 17:36 | 25.80018 | -80.28789 | 27 ft | 24 kts | 266° |
| 2026-04-20 17:37 | 25.80009 | -80.28961 | 29 ft | 20 kts | 267° |
| 2026-04-20 17:37 | 25.80002 | -80.29118 | 26 ft | 20 kts | 267° |
| 2026-04-20 17:37 | 25.79996 | -80.29274 | 25 ft | 20 kts | 268° |
| 2026-04-20 17:37 | 25.79990 | -80.29451 | 19 ft | 26 kts | 267° |
| 2026-04-20 17:38 | 25.79982 | -80.29649 | 19 ft | 26 kts | 267° |
| 2026-04-20 17:38 | 25.79974 | -80.29848 | 17 ft | 26 kts | 267° |
| 2026-04-20 17:38 | 25.79967 | -80.30019 | 17 ft | 10 kts | 268° |
| 2026-04-20 17:38 | 25.79966 | -80.30044 | 17 ft | 0 kts | 268° |
| 2026-04-20 17:40 | 25.79973 | -80.30068 | 18 ft | 4 kts | 298° |
| 2026-04-20 17:40 | 25.79989 | -80.30098 | 19 ft | 8 kts | 303° |
| 2026-04-20 17:40 | 25.80039 | -80.30126 | 20 ft | 7 kts | 351° |
| 2026-04-20 17:40 | 25.80073 | -80.30097 | 19 ft | 7 kts | 76° |
| 2026-04-20 17:41 | 25.80075 | -80.30045 | 18 ft | 4 kts | 88° |
| 2026-04-20 17:41 | 25.80075 | -80.30033 | 17 ft | 6 kts | 88° |
| 2026-04-20 17:41 | 25.80088 | -80.29731 | 19 ft | 82 kts | 87° |
| 2026-04-20 17:41 | 25.80128 | -80.28788 | 29 ft | 159 kts | 87° |
| 2026-04-20 17:42 | 25.80180 | -80.27376 | 320 ft | 194 kts | 87° |
| 2026-04-20 17:42 | 25.80005 | -80.25905 | 1248 ft | 190 kts | 107° |
| 2026-04-20 17:42 | 25.79428 | -80.24613 | 2249 ft | 187 kts | 120° |
| 2026-04-20 17:42 | 25.78606 | -80.23477 | 3014 ft | 193 kts | 133° |
| 2026-04-20 17:43 | 25.77570 | -80.22486 | 3664 ft | 203 kts | 140° |
| 2026-04-20 17:43 | 25.76367 | -80.21488 | 4029 ft | 231 kts | 143° |
| 2026-04-20 17:43 | 25.74938 | -80.20463 | 4500 ft | 251 kts | 149° |
| 2026-04-20 17:43 | 25.73356 | -80.19777 | 5566 ft | 244 kts | 169° |
| 2026-04-20 17:44 | 25.71676 | -80.19618 | 6653 ft | 236 kts | 176° |
| 2026-04-20 17:44 | 25.70014 | -80.19509 | 7171 ft | 254 kts | 173° |
| 2026-04-20 17:44 | 25.68142 | -80.19214 | 7562 ft | 277 kts | 172° |
| 2026-04-20 17:44 | 25.66199 | -80.19012 | 8138 ft | 285 kts | 184° |
| 2026-04-20 17:45 | 25.64233 | -80.19281 | 8911 ft | 292 kts | 189° |
| 2026-04-20 17:45 | 25.62235 | -80.19636 | 9608 ft | 293 kts | 195° |
| 2026-04-20 17:45 | 25.60370 | -80.20554 | 10326 ft | 297 kts | 212° |
| 2026-04-20 17:45 | 25.58547 | -80.21799 | 10738 ft | 322 kts | 213° |
| 2026-04-20 17:46 | 25.56542 | -80.23136 | 10965 ft | 351 kts | 212° |
| 2026-04-20 17:46 | 25.54390 | -80.24540 | 11617 ft | 365 kts | 211° |
| 2026-04-20 17:46 | 25.52165 | -80.25963 | 12600 ft | 371 kts | 211° |
| 2026-04-20 17:46 | 25.49916 | -80.27396 | 13703 ft | 374 kts | 212° |
| 2026-04-20 17:47 | 25.47614 | -80.28855 | 14763 ft | 379 kts | 212° |
| 2026-04-20 17:47 | 25.45309 | -80.30313 | 15777 ft | 384 kts | 212° |
| 2026-04-20 17:47 | 25.43005 | -80.31768 | 16769 ft | 388 kts | 213° |
| 2026-04-20 17:47 | 25.40647 | -80.33253 | 17745 ft | 393 kts | 213° |
| 2026-04-20 17:48 | 25.38226 | -80.34777 | 18672 ft | 398 kts | 213° |
| 2026-04-20 17:48 | 25.35839 | -80.36279 | 19543 ft | 403 kts | 213° |
| 2026-04-20 17:48 | 25.33358 | -80.37842 | 20411 ft | 408 kts | 213° |
| 2026-04-20 17:48 | 25.30912 | -80.39381 | 21260 ft | 412 kts | 214° |
| 2026-04-20 17:49 | 25.28412 | -80.40955 | 22077 ft | 416 kts | 214° |
| 2026-04-20 17:49 | 25.25876 | -80.42549 | 22812 ft | 421 kts | 214° |
| 2026-04-20 17:49 | 25.23295 | -80.44128 | 23523 ft | 428 kts | 211° |
| 2026-04-20 17:49 | 25.20489 | -80.45307 | 24175 ft | 437 kts | 201° |
| 2026-04-20 17:50 | 25.17537 | -80.46221 | 24816 ft | 443 kts | 200° |
| 2026-04-20 17:50 | 25.14537 | -80.47111 | 25459 ft | 448 kts | 200° |
| 2026-04-20 17:50 | 25.11520 | -80.48025 | 26104 ft | 452 kts | 201° |
| 2026-04-20 17:50 | 25.08489 | -80.48973 | 26742 ft | 455 kts | 201° |
| 2026-04-20 17:51 | 25.05439 | -80.49953 | 27331 ft | 459 kts | 202° |
| 2026-04-20 17:51 | 25.02369 | -80.50954 | 27922 ft | 462 kts | 202° |
| 2026-04-20 17:51 | 24.99266 | -80.51971 | 28454 ft | 467 kts | 202° |
| 2026-04-20 17:51 | 24.96144 | -80.52995 | 28987 ft | 470 kts | 202° |
| 2026-04-20 17:52 | 24.92994 | -80.54025 | 29526 ft | 473 kts | 202° |
| 2026-04-20 17:52 | 24.89825 | -80.55060 | 30016 ft | 477 kts | 203° |
| 2026-04-20 17:52 | 24.86630 | -80.56101 | 30473 ft | 480 kts | 203° |
| 2026-04-20 17:52 | 24.83565 | -80.57440 | 30721 ft | 472 kts | 216° |
| 2026-04-20 17:53 | 24.81013 | -80.59576 | 31040 ft | 463 kts | 230° |
| 2026-04-20 17:53 | 24.79062 | -80.62331 | 31506 ft | 449 kts | 243° |
| 2026-04-20 17:53 | 24.77463 | -80.65290 | 31952 ft | 450 kts | 243° |
| 2026-04-20 17:53 | 24.75822 | -80.68218 | 32490 ft | 449 kts | 243° |
| 2026-04-20 17:54 | 24.74158 | -80.71114 | 33055 ft | 447 kts | 242° |
| 2026-04-20 17:54 | 24.72495 | -80.73979 | 33614 ft | 444 kts | 242° |
| 2026-04-20 17:54 | 24.70832 | -80.76835 | 34067 ft | 443 kts | 242° |
| 2026-04-20 17:54 | 24.69169 | -80.79690 | 34528 ft | 442 kts | 242° |
| 2026-04-20 17:55 | 24.67515 | -80.82530 | 34980 ft | 441 kts | 243° |
| 2026-04-20 17:55 | 24.65862 | -80.85368 | 35420 ft | 440 kts | 243° |
| 2026-04-20 17:55 | 24.64215 | -80.88196 | 35833 ft | 439 kts | 243° |
| 2026-04-20 17:55 | 24.62569 | -80.91023 | 36237 ft | 438 kts | 243° |
| 2026-04-20 17:56 | 24.60923 | -80.93848 | 36590 ft | 438 kts | 243° |
| 2026-04-20 17:56 | 24.59229 | -80.96630 | 36891 ft | 440 kts | 237° |
| 2026-04-20 17:56 | 24.56967 | -80.98976 | 37050 ft | 459 kts | 221° |
| 2026-04-20 17:56 | 24.54118 | -81.00656 | 37115 ft | 470 kts | 209° |
| 2026-04-20 17:57 | 24.50961 | -81.01684 | 37115 ft | 477 kts | 196° |
| 2026-04-20 17:57 | 24.44229 | -81.01761 | 37131 ft | 487 kts | 186° |
| 2026-04-20 17:58 | 24.37440 | -81.01556 | 37135 ft | 489 kts | 186° |
| 2026-04-20 17:58 | 24.30634 | -81.01442 | 37123 ft | 490 kts | 187° |
| 2026-04-20 17:59 | 24.23820 | -81.01386 | 37118 ft | 490 kts | 187° |
| 2026-04-20 17:59 | 24.17007 | -81.01337 | 37122 ft | 489 kts | 187° |
| 2026-04-20 18:00 | 24.10204 | -81.01284 | 37117 ft | 488 kts | 187° |
| 2026-04-20 18:00 | 24.03465 | -81.01229 | 37118 ft | 486 kts | 187° |
| 2026-04-20 18:01 | 23.96694 | -81.01124 | 37115 ft | 487 kts | 185° |
| 2026-04-20 18:01 | 23.89915 | -81.00819 | 37116 ft | 488 kts | 184° |
| 2026-04-20 18:02 | 23.83135 | -81.00486 | 37114 ft | 488 kts | 184° |
| 2026-04-20 18:02 | 23.76355 | -81.00182 | 37113 ft | 488 kts | 185° |
| 2026-04-20 18:03 | 23.69571 | -80.99893 | 37110 ft | 487 kts | 185° |
| 2026-04-20 18:03 | 23.62791 | -80.99606 | 37101 ft | 488 kts | 185° |
| 2026-04-20 18:04 | 23.56005 | -80.99316 | 37114 ft | 488 kts | 185° |
| 2026-04-20 18:04 | 23.49223 | -80.99026 | 37106 ft | 488 kts | 185° |
| 2026-04-20 18:05 | 23.39033 | -80.98591 | 37108 ft | 488 kts | 185° |
| 2026-04-20 18:05 | 23.32232 | -80.98302 | 37106 ft | 489 kts | 185° |
| 2026-04-20 18:06 | 23.25425 | -80.98014 | 37104 ft | 489 kts | 185° |
| 2026-04-20 18:06 | 23.18627 | -80.97740 | 37101 ft | 489 kts | 185° |
| 2026-04-20 18:07 | 23.11865 | -80.97469 | 37104 ft | 489 kts | 185° |
| 2026-04-20 18:07 | 23.05101 | -80.97373 | 37082 ft | 477 kts | 196° |
| 2026-04-20 18:08 | 23.01956 | -80.98363 | 37105 ft | 458 kts | 213° |
| 2026-04-20 18:08 | 22.99267 | -81.00124 | 37114 ft | 448 kts | 225° |
| 2026-04-20 18:08 | 22.95008 | -81.04877 | 37115 ft | 443 kts | 234° |
| 2026-04-20 18:09 | 22.90845 | -81.09849 | 37108 ft | 447 kts | 233° |
| 2026-04-20 18:09 | 22.86630 | -81.14801 | 37097 ft | 447 kts | 233° |
| 2026-04-20 18:10 | 22.82404 | -81.19724 | 37098 ft | 445 kts | 233° |
| 2026-04-20 18:10 | 22.78199 | -81.24619 | 37098 ft | 443 kts | 233° |
| 2026-04-20 18:11 | 22.74014 | -81.29488 | 37104 ft | 441 kts | 233° |
| 2026-04-20 18:11 | 22.69842 | -81.34342 | 37104 ft | 439 kts | 233° |
| 2026-04-20 18:12 | 22.65672 | -81.39185 | 37106 ft | 439 kts | 233° |
| 2026-04-20 18:12 | 22.61510 | -81.44031 | 37104 ft | 440 kts | 233° |
| 2026-04-20 18:13 | 22.57338 | -81.48905 | 37294 ft | 444 kts | 233° |
| 2026-04-20 18:13 | 22.55239 | -81.51355 | 37632 ft | 443 kts | 233° |
| 2026-04-20 18:13 | 22.53139 | -81.53802 | 37956 ft | 443 kts | 233° |
| 2026-04-20 18:14 | 22.51049 | -81.56236 | 38305 ft | 441 kts | 233° |
| 2026-04-20 18:14 | 22.48961 | -81.58668 | 38623 ft | 441 kts | 233° |
| 2026-04-20 18:14 | 22.46875 | -81.61097 | 38900 ft | 441 kts | 233° |
| 2026-04-20 18:14 | 22.44784 | -81.63533 | 39032 ft | 443 kts | 233° |
| 2026-04-20 18:15 | 22.40604 | -81.68395 | 39106 ft | 444 kts | 233° |
| 2026-04-20 18:15 | 22.36408 | -81.73265 | 39109 ft | 441 kts | 233° |
| 2026-04-20 18:16 | 22.32243 | -81.78092 | 39107 ft | 438 kts | 233° |
| 2026-04-20 18:16 | 22.28102 | -81.82889 | 39111 ft | 436 kts | 233° |
| 2026-04-20 18:17 | 22.23962 | -81.87685 | 39111 ft | 437 kts | 233° |
| 2026-04-20 18:17 | 22.19809 | -81.92492 | 39115 ft | 439 kts | 233° |
| 2026-04-20 18:18 | 22.15635 | -81.97315 | 39111 ft | 440 kts | 233° |
| 2026-04-20 18:18 | 22.11447 | -82.02150 | 39113 ft | 442 kts | 233° |
| 2026-04-20 18:19 | 22.07243 | -82.06999 | 39119 ft | 443 kts | 233° |
| 2026-04-20 18:19 | 22.03029 | -82.11857 | 39116 ft | 445 kts | 233° |
| 2026-04-20 18:20 | 21.99509 | -82.15908 | 39111 ft | 445 kts | 233° |
| 2026-04-20 18:20 | 21.95284 | -82.20769 | 39107 ft | 443 kts | 233° |
| 2026-04-20 18:21 | 21.91073 | -82.25609 | 39109 ft | 442 kts | 233° |
| 2026-04-20 18:21 | 21.86868 | -82.30437 | 39109 ft | 441 kts | 232° |
| 2026-04-20 18:22 | 21.82669 | -82.35254 | 39110 ft | 441 kts | 232° |
| 2026-04-20 18:22 | 21.78474 | -82.40065 | 39111 ft | 441 kts | 232° |
| 2026-04-20 18:23 | 21.74274 | -82.44877 | 39113 ft | 441 kts | 232° |
| 2026-04-20 18:23 | 21.70075 | -82.49684 | 39122 ft | 441 kts | 232° |
| 2026-04-20 18:24 | 21.65885 | -82.54510 | 39126 ft | 441 kts | 233° |
| 2026-04-20 18:24 | 21.61746 | -82.59386 | 39119 ft | 442 kts | 233° |
| 2026-04-20 18:25 | 21.57604 | -82.64268 | 39116 ft | 443 kts | 233° |
| 2026-04-20 18:25 | 21.53445 | -82.69155 | 39113 ft | 443 kts | 233° |
| 2026-04-20 18:26 | 21.49274 | -82.74040 | 39113 ft | 444 kts | 233° |
| 2026-04-20 18:26 | 21.45101 | -82.78922 | 39110 ft | 444 kts | 233° |
| 2026-04-20 18:27 | 21.40953 | -82.83775 | 39112 ft | 444 kts | 233° |
| 2026-04-20 18:27 | 21.36747 | -82.88690 | 39109 ft | 444 kts | 232° |
| 2026-04-20 18:28 | 21.32601 | -82.93531 | 39112 ft | 443 kts | 232° |
| 2026-04-20 18:28 | 21.28425 | -82.98404 | 39110 ft | 443 kts | 232° |
| 2026-04-20 18:29 | 21.24249 | -83.03271 | 39111 ft | 444 kts | 232° |
| 2026-04-20 18:29 | 21.20074 | -83.08137 | 39111 ft | 444 kts | 232° |
| 2026-04-20 18:30 | 21.15893 | -83.13010 | 39115 ft | 444 kts | 232° |
| 2026-04-20 18:30 | 21.11705 | -83.17886 | 39106 ft | 444 kts | 232° |
| 2026-04-20 18:31 | 21.07515 | -83.22758 | 39103 ft | 444 kts | 232° |
| 2026-04-20 18:31 | 21.03327 | -83.27628 | 39100 ft | 445 kts | 232° |
| 2026-04-20 18:32 | 20.99140 | -83.32497 | 39104 ft | 444 kts | 232° |
| 2026-04-20 18:32 | 20.94968 | -83.37380 | 39100 ft | 444 kts | 232° |
| 2026-04-20 18:33 | 20.90796 | -83.42262 | 39103 ft | 444 kts | 232° |
| 2026-04-20 18:33 | 20.86624 | -83.47140 | 39101 ft | 445 kts | 232° |
| 2026-04-20 18:34 | 20.82469 | -83.51992 | 39102 ft | 445 kts | 232° |
| 2026-04-20 18:34 | 20.78288 | -83.56866 | 39104 ft | 445 kts | 232° |
| 2026-04-20 18:35 | 20.74101 | -83.61746 | 39100 ft | 445 kts | 232° |
| 2026-04-20 18:35 | 20.69913 | -83.66621 | 39102 ft | 446 kts | 231° |
| 2026-04-20 18:36 | 20.65720 | -83.71500 | 39095 ft | 446 kts | 231° |
| 2026-04-20 18:36 | 20.61524 | -83.76378 | 39092 ft | 446 kts | 231° |
| 2026-04-20 18:37 | 20.57333 | -83.81245 | 39092 ft | 446 kts | 231° |
| 2026-04-20 18:37 | 20.53133 | -83.86119 | 39093 ft | 446 kts | 231° |
| 2026-04-20 18:38 | 20.48933 | -83.90990 | 39094 ft | 446 kts | 231° |
| 2026-04-20 18:38 | 20.44814 | -83.95930 | 39094 ft | 444 kts | 236° |
| 2026-04-20 18:39 | 20.41295 | -84.01311 | 39100 ft | 442 kts | 239° |
| 2026-04-20 18:39 | 20.37830 | -84.06736 | 39090 ft | 443 kts | 238° |
| 2026-04-20 18:40 | 20.34349 | -84.12156 | 39094 ft | 443 kts | 238° |
| 2026-04-20 18:40 | 20.30855 | -84.17570 | 39095 ft | 444 kts | 238° |
| 2026-04-20 18:41 | 20.27354 | -84.22983 | 39092 ft | 444 kts | 238° |
| 2026-04-20 18:41 | 20.23851 | -84.28391 | 39092 ft | 444 kts | 238° |
| 2026-04-20 18:42 | 20.20347 | -84.33796 | 39092 ft | 444 kts | 238° |
| 2026-04-20 18:42 | 20.16859 | -84.39174 | 39093 ft | 444 kts | 238° |
| 2026-04-20 18:43 | 20.13349 | -84.44581 | 39092 ft | 444 kts | 238° |
| 2026-04-20 18:43 | 20.09838 | -84.49981 | 39094 ft | 444 kts | 238° |
| 2026-04-20 18:44 | 20.06327 | -84.55381 | 39092 ft | 444 kts | 238° |
| 2026-04-20 18:44 | 20.02816 | -84.60777 | 39092 ft | 443 kts | 238° |
| 2026-04-20 18:45 | 19.99305 | -84.66162 | 39092 ft | 443 kts | 238° |
| 2026-04-20 18:45 | 19.95786 | -84.71553 | 39093 ft | 444 kts | 238° |
| 2026-04-20 18:46 | 19.92264 | -84.76949 | 39093 ft | 445 kts | 238° |
| 2026-04-20 18:46 | 19.88737 | -84.82351 | 39094 ft | 445 kts | 238° |
| 2026-04-20 18:47 | 19.85198 | -84.87758 | 39093 ft | 446 kts | 238° |
| 2026-04-20 18:47 | 19.81651 | -84.93176 | 39092 ft | 447 kts | 238° |
| 2026-04-20 18:48 | 19.78101 | -84.98594 | 39093 ft | 447 kts | 238° |
| 2026-04-20 18:48 | 19.74543 | -85.04021 | 39094 ft | 448 kts | 238° |
| 2026-04-20 18:49 | 19.70979 | -85.09451 | 39093 ft | 448 kts | 238° |
| 2026-04-20 18:49 | 19.67414 | -85.14874 | 39092 ft | 448 kts | 238° |
| 2026-04-20 18:50 | 19.63852 | -85.20291 | 39090 ft | 448 kts | 238° |
| 2026-04-20 18:50 | 19.60285 | -85.25709 | 39094 ft | 447 kts | 238° |
| 2026-04-20 18:51 | 19.56746 | -85.31081 | 39093 ft | 447 kts | 238° |
| 2026-04-20 18:51 | 19.53181 | -85.36490 | 39093 ft | 447 kts | 238° |
| 2026-04-20 18:52 | 19.49616 | -85.41890 | 39091 ft | 447 kts | 238° |
| 2026-04-20 18:52 | 19.46054 | -85.47283 | 39091 ft | 446 kts | 238° |
| 2026-04-20 18:53 | 19.42492 | -85.52672 | 39091 ft | 447 kts | 237° |
| 2026-04-20 18:53 | 19.38938 | -85.58042 | 39093 ft | 447 kts | 237° |
| 2026-04-20 18:54 | 19.35365 | -85.63436 | 39093 ft | 447 kts | 237° |
| 2026-04-20 18:54 | 19.31792 | -85.68827 | 39087 ft | 448 kts | 237° |
| 2026-04-20 18:55 | 19.28202 | -85.74238 | 39083 ft | 448 kts | 237° |
| 2026-04-20 18:55 | 19.24618 | -85.79634 | 39084 ft | 448 kts | 237° |
| 2026-04-20 18:56 | 19.21029 | -85.85034 | 39081 ft | 449 kts | 237° |
| 2026-04-20 18:56 | 19.17439 | -85.90432 | 39084 ft | 448 kts | 237° |
| 2026-04-20 18:57 | 19.13845 | -85.95830 | 39084 ft | 449 kts | 237° |
| 2026-04-20 18:57 | 19.10249 | -86.01226 | 39089 ft | 449 kts | 237° |
| 2026-04-20 18:58 | 19.06653 | -86.06620 | 39093 ft | 449 kts | 237° |
| 2026-04-20 18:58 | 19.03045 | -86.12021 | 39095 ft | 450 kts | 237° |
| 2026-04-20 18:59 | 18.99433 | -86.17429 | 39094 ft | 451 kts | 237° |
| 2026-04-20 18:59 | 18.95817 | -86.22835 | 39093 ft | 451 kts | 237° |
| 2026-04-20 19:00 | 18.92217 | -86.28215 | 39091 ft | 451 kts | 237° |
| 2026-04-20 19:00 | 18.88592 | -86.33626 | 39094 ft | 452 kts | 237° |
| 2026-04-20 19:01 | 18.84963 | -86.39038 | 39094 ft | 452 kts | 237° |
| 2026-04-20 19:01 | 18.81328 | -86.44454 | 39090 ft | 452 kts | 237° |
| 2026-04-20 19:02 | 18.77692 | -86.49870 | 39094 ft | 452 kts | 237° |
| 2026-04-20 19:02 | 18.74055 | -86.55281 | 39092 ft | 452 kts | 237° |
| 2026-04-20 19:03 | 18.70411 | -86.60695 | 39092 ft | 452 kts | 237° |
| 2026-04-20 19:03 | 18.66770 | -86.66103 | 39093 ft | 453 kts | 237° |
| 2026-04-20 19:04 | 18.63123 | -86.71516 | 39092 ft | 453 kts | 236° |
| 2026-04-20 19:04 | 18.59470 | -86.76932 | 39080 ft | 453 kts | 236° |
| 2026-04-20 19:05 | 18.55816 | -86.82345 | 39073 ft | 453 kts | 236° |
| 2026-04-20 19:05 | 18.52163 | -86.87752 | 39071 ft | 452 kts | 236° |
| 2026-04-20 19:06 | 18.50350 | -86.90433 | 38903 ft | 446 kts | 236° |
| 2026-04-20 19:06 | 18.48564 | -86.93070 | 38482 ft | 436 kts | 236° |
| 2026-04-20 19:06 | 18.46792 | -86.95687 | 37476 ft | 444 kts | 236° |
| 2026-04-20 19:06 | 18.45600 | -86.97450 | 36858 ft | 448 kts | 237° |
| 2026-04-20 19:07 | 18.43790 | -87.00125 | 36154 ft | 448 kts | 237° |
| 2026-04-20 19:07 | 18.41985 | -87.02791 | 35624 ft | 445 kts | 237° |
| 2026-04-20 19:07 | 18.40196 | -87.05430 | 35097 ft | 442 kts | 237° |
| 2026-04-20 19:07 | 18.38414 | -87.08058 | 34542 ft | 439 kts | 237° |
| 2026-04-20 19:08 | 18.36642 | -87.10670 | 33963 ft | 438 kts | 237° |
| 2026-04-20 19:08 | 18.33114 | -87.15865 | 32855 ft | 434 kts | 237° |
| 2026-04-20 19:08 | 18.31370 | -87.18435 | 32371 ft | 430 kts | 237° |
| 2026-04-20 19:09 | 18.29637 | -87.20987 | 31899 ft | 426 kts | 237° |
| 2026-04-20 19:09 | 18.27921 | -87.23511 | 31433 ft | 423 kts | 237° |
| 2026-04-20 19:09 | 18.26216 | -87.26019 | 30927 ft | 420 kts | 237° |
| 2026-04-20 19:09 | 18.24520 | -87.28515 | 30432 ft | 417 kts | 237° |
| 2026-04-20 19:10 | 18.22841 | -87.30985 | 29944 ft | 415 kts | 236° |
| 2026-04-20 19:10 | 18.21165 | -87.33448 | 29463 ft | 412 kts | 236° |
| 2026-04-20 19:10 | 18.19500 | -87.35894 | 28994 ft | 410 kts | 236° |
| 2026-04-20 19:10 | 18.17845 | -87.38325 | 28512 ft | 407 kts | 236° |
| 2026-04-20 19:11 | 18.16221 | -87.40709 | 28063 ft | 405 kts | 236° |
| 2026-04-20 19:11 | 18.14585 | -87.43109 | 27596 ft | 403 kts | 236° |
| 2026-04-20 19:11 | 18.12958 | -87.45495 | 27121 ft | 401 kts | 236° |
| 2026-04-20 19:11 | 18.11335 | -87.47875 | 26652 ft | 399 kts | 236° |
| 2026-04-20 19:12 | 18.09722 | -87.50238 | 26197 ft | 397 kts | 236° |
| 2026-04-20 19:12 | 18.08116 | -87.52591 | 25750 ft | 395 kts | 235° |
| 2026-04-20 19:12 | 18.06520 | -87.54929 | 25307 ft | 392 kts | 235° |
| 2026-04-20 19:12 | 18.04934 | -87.57252 | 24858 ft | 390 kts | 235° |
| 2026-04-20 19:13 | 18.03353 | -87.59566 | 24410 ft | 388 kts | 235° |
| 2026-04-20 19:13 | 18.01781 | -87.61866 | 23969 ft | 387 kts | 235° |
| 2026-04-20 19:13 | 18.00216 | -87.64155 | 23518 ft | 385 kts | 235° |
| 2026-04-20 19:13 | 17.98658 | -87.66431 | 23085 ft | 383 kts | 234° |
| 2026-04-20 19:14 | 17.97105 | -87.68701 | 22627 ft | 382 kts | 234° |
| 2026-04-20 19:14 | 17.95558 | -87.70962 | 22186 ft | 381 kts | 234° |
| 2026-04-20 19:14 | 17.94013 | -87.73219 | 21765 ft | 379 kts | 234° |
| 2026-04-20 19:14 | 17.92480 | -87.75457 | 21335 ft | 377 kts | 234° |
| 2026-04-20 19:15 | 17.90946 | -87.77696 | 20905 ft | 376 kts | 234° |
| 2026-04-20 19:15 | 17.89422 | -87.79920 | 20485 ft | 375 kts | 234° |
| 2026-04-20 19:15 | 17.87903 | -87.82139 | 20085 ft | 373 kts | 234° |
| 2026-04-20 19:15 | 17.86393 | -87.84344 | 19681 ft | 371 kts | 234° |
| 2026-04-20 19:16 | 17.84887 | -87.86541 | 19267 ft | 370 kts | 234° |
| 2026-04-20 19:16 | 17.83382 | -87.88735 | 18833 ft | 370 kts | 234° |
| 2026-04-20 19:16 | 17.81882 | -87.90921 | 18408 ft | 369 kts | 234° |
| 2026-04-20 19:16 | 17.80386 | -87.93103 | 17999 ft | 368 kts | 234° |
| 2026-04-20 19:17 | 17.78896 | -87.95276 | 17605 ft | 367 kts | 234° |
| 2026-04-20 19:17 | 17.77408 | -87.97443 | 17249 ft | 364 kts | 234° |
| 2026-04-20 19:17 | 17.75933 | -87.99592 | 16940 ft | 361 kts | 234° |
| 2026-04-20 19:17 | 17.74509 | -88.01733 | 16561 ft | 356 kts | 239° |
| 2026-04-20 19:18 | 17.73548 | -88.04124 | 16083 ft | 357 kts | 253° |
| 2026-04-20 19:18 | 17.72936 | -88.06637 | 15744 ft | 354 kts | 257° |
| 2026-04-20 19:18 | 17.72412 | -88.09154 | 15424 ft | 352 kts | 258° |
| 2026-04-20 19:18 | 17.71917 | -88.11636 | 15279 ft | 343 kts | 258° |
| 2026-04-20 19:19 | 17.71440 | -88.14048 | 15208 ft | 332 kts | 258° |
| 2026-04-20 19:19 | 17.70983 | -88.16382 | 15108 ft | 321 kts | 257° |
| 2026-04-20 19:19 | 17.70378 | -88.18576 | 14960 ft | 314 kts | 251° |
| 2026-04-20 19:19 | 17.69692 | -88.20733 | 14751 ft | 310 kts | 250° |
| 2026-04-20 19:20 | 17.68945 | -88.22846 | 14463 ft | 308 kts | 249° |
| 2026-04-20 19:20 | 17.68173 | -88.24967 | 14155 ft | 307 kts | 249° |
| 2026-04-20 19:20 | 17.67410 | -88.27055 | 13841 ft | 307 kts | 249° |
| 2026-04-20 19:20 | 17.66659 | -88.29111 | 13564 ft | 305 kts | 249° |
| 2026-04-20 19:21 | 17.65902 | -88.31183 | 13329 ft | 303 kts | 249° |
| 2026-04-20 19:21 | 17.65153 | -88.33235 | 13073 ft | 300 kts | 249° |
| 2026-04-20 19:21 | 17.64411 | -88.35274 | 12791 ft | 294 kts | 249° |
| 2026-04-20 19:21 | 17.63698 | -88.37237 | 12303 ft | 285 kts | 249° |
| 2026-04-20 19:22 | 17.62986 | -88.39196 | 11940 ft | 288 kts | 249° |
| 2026-04-20 19:22 | 17.62281 | -88.41145 | 11736 ft | 284 kts | 249° |
| 2026-04-20 19:22 | 17.61585 | -88.43070 | 11519 ft | 281 kts | 249° |
| 2026-04-20 19:22 | 17.60893 | -88.44985 | 11243 ft | 281 kts | 249° |
| 2026-04-20 19:23 | 17.60210 | -88.46867 | 10985 ft | 268 kts | 249° |
| 2026-04-20 19:23 | 17.59560 | -88.48654 | 10557 ft | 258 kts | 249° |
| 2026-04-20 19:23 | 17.58924 | -88.50392 | 10073 ft | 252 kts | 249° |
| 2026-04-20 19:23 | 17.58298 | -88.52088 | 9553 ft | 248 kts | 249° |
| 2026-04-20 19:24 | 17.57667 | -88.53784 | 9077 ft | 254 kts | 249° |
| 2026-04-20 19:24 | 17.57021 | -88.55513 | 8595 ft | 253 kts | 249° |
| 2026-04-20 19:24 | 17.56377 | -88.57217 | 8114 ft | 254 kts | 249° |
| 2026-04-20 19:24 | 17.55710 | -88.58958 | 7616 ft | 257 kts | 249° |
| 2026-04-20 19:25 | 17.55055 | -88.60670 | 7084 ft | 249 kts | 249° |
| 2026-04-20 19:25 | 17.54211 | -88.62207 | 6544 ft | 242 kts | 222° |
| 2026-04-20 19:25 | 17.52700 | -88.62933 | 6086 ft | 244 kts | 182° |
| 2026-04-20 19:25 | 17.51076 | -88.62544 | 5627 ft | 243 kts | 147° |
| 2026-04-20 19:26 | 17.49800 | -88.61415 | 5280 ft | 240 kts | 127° |
| 2026-04-20 19:26 | 17.48958 | -88.59924 | 4913 ft | 238 kts | 107° |
| 2026-04-20 19:26 | 17.48804 | -88.58230 | 4565 ft | 233 kts | 83° |
| 2026-04-20 19:26 | 17.48942 | -88.56537 | 4160 ft | 234 kts | 85° |
| 2026-04-20 19:27 | 17.49034 | -88.54848 | 3906 ft | 230 kts | 85° |
| 2026-04-20 19:27 | 17.49122 | -88.53197 | 3783 ft | 222 kts | 85° |
| 2026-04-20 19:27 | 17.49269 | -88.51640 | 3680 ft | 205 kts | 77° |
| 2026-04-20 19:27 | 17.49567 | -88.50247 | 3498 ft | 191 kts | 75° |
| 2026-04-20 19:28 | 17.49879 | -88.48906 | 3243 ft | 187 kts | 75° |
| 2026-04-20 19:28 | 17.50188 | -88.47590 | 3023 ft | 185 kts | 74° |
| 2026-04-20 19:28 | 17.50486 | -88.46288 | 2798 ft | 182 kts | 75° |
| 2026-04-20 19:28 | 17.50775 | -88.44995 | 2515 ft | 182 kts | 75° |
| 2026-04-20 19:29 | 17.51053 | -88.43738 | 2299 ft | 171 kts | 75° |
| 2026-04-20 19:29 | 17.51316 | -88.42576 | 2092 ft | 160 kts | 75° |
| 2026-04-20 19:29 | 17.51560 | -88.41471 | 1874 ft | 149 kts | 75° |
| 2026-04-20 19:29 | 17.51776 | -88.40456 | 1681 ft | 141 kts | 76° |
| 2026-04-20 19:30 | 17.52001 | -88.39433 | 1500 ft | 147 kts | 76° |
| 2026-04-20 19:30 | 17.52236 | -88.38398 | 1298 ft | 145 kts | 76° |
| 2026-04-20 19:30 | 17.52460 | -88.37388 | 1081 ft | 141 kts | 76° |
| 2026-04-20 19:30 | 17.52686 | -88.36377 | 931 ft | 145 kts | 76° |
| 2026-04-20 19:31 | 17.52913 | -88.35347 | 734 ft | 144 kts | 76° |
| 2026-04-20 19:31 | 17.53138 | -88.34326 | 530 ft | 143 kts | 76° |
| 2026-04-20 19:31 | 17.53356 | -88.33310 | 370 ft | 143 kts | 77° |
| 2026-04-20 19:31 | 17.53578 | -88.32288 | 241 ft | 147 kts | 74° |
| 2026-04-20 19:32 | 17.53817 | -88.31239 | 44 ft | 146 kts | 77° |
| 2026-04-20 19:32 | 17.54025 | -88.30283 | 27 ft | 117 kts | 76° |
| 2026-04-20 19:32 | 17.54169 | -88.29619 | 27 ft | 53 kts | 77° |
| 2026-04-20 19:32 | 17.54218 | -88.29392 | 24 ft | 36 kts | 76° |
| 2026-04-20 19:33 | 17.54257 | -88.29211 | 22 ft | 15 kts | 94° |
| 2026-04-20 19:33 | 17.54240 | -88.29152 | 26 ft | 3 kts | 78° |
| 2026-04-20 19:33 | 17.54260 | -88.29148 | 24 ft | 6 kts | 341° |
| 2026-04-20 19:33 | 17.54264 | -88.29195 | 22 ft | 8 kts | 254° |
| 2026-04-20 19:34 | 17.54225 | -88.29341 | 24 ft | 39 kts | 256° |
| 2026-04-20 19:34 | 17.54163 | -88.29649 | 25 ft | 43 kts | 257° |
| 2026-04-20 19:34 | 17.54097 | -88.29951 | 22 ft | 42 kts | 257° |
| 2026-04-20 19:34 | 17.54032 | -88.30243 | 26 ft | 40 kts | 257° |
| 2026-04-20 19:35 | 17.53971 | -88.30520 | 22 ft | 39 kts | 257° |
| 2026-04-20 19:35 | 17.53914 | -88.30784 | 24 ft | 24 kts | 257° |
| 2026-04-20 19:35 | 17.53893 | -88.30868 | 22 ft | 5 kts | 240° |
| 2026-04-20 19:35 | 17.53857 | -88.30879 | 22 ft | 6 kts | 176° |
| 2026-04-20 19:36 | 17.53813 | -88.30870 | 22 ft | 7 kts | 169° |
| 2026-04-20 19:36 | 17.53761 | -88.30860 | 23 ft | 8 kts | 169° |
| 2026-04-20 19:36 | 17.53737 | -88.30826 | 25 ft | 6 kts | 88° |
| 2026-04-20 19:36 | 17.53747 | -88.30772 | 23 ft | 10 kts | 77° |
| 2026-04-20 19:37 | 17.53764 | -88.30698 | 22 ft | 10 kts | 77° |
| 2026-04-20 19:37 | 17.53765 | -88.30657 | 25 ft | 3 kts | 114° |
| 2026-04-20 19:37 | 17.53755 | -88.30633 | 22 ft | 4 kts | 105° |
| 2026-04-20 19:37 | 17.53752 | -88.30622 | 25 ft | 2 kts | 113° |
| 2026-04-20 19:38 | 17.53727 | -88.30606 | 22 ft | 5 kts | 159° |
| 2026-04-20 19:38 | 17.53723 | -88.30605 | 22 ft | 0 kts | 159° |
| 2026-04-20 19:57 | 17.53724 | -88.30605 | 24 ft | 0 kts | 159° |